createdAt,value
2018-03-24T00:00:01.251Z,0
2018-03-24T00:01:03.912Z,0
2018-03-24T00:02:06.288Z,0
2018-03-24T00:03:08.651Z,0
2018-03-24T00:04:11.368Z,0
2018-03-24T00:05:13.788Z,0
2018-03-24T00:06:16.380Z,0
2018-03-24T00:07:19.060Z,0
2018-03-24T00:08:21.564Z,0
2018-03-24T00:09:24.214Z,0
2018-03-24T00:10:26.877Z,0
2018-03-24T00:11:29.593Z,0
2018-03-24T00:12:32.292Z,0
2018-03-24T00:13:34.868Z,0
2018-03-24T00:14:37.277Z,0
2018-03-24T00:15:39.796Z,0
2018-03-24T00:16:42.157Z,0
2018-03-24T00:17:44.525Z,0
2018-03-24T00:18:46.900Z,0
2018-03-24T00:19:49.599Z,0
2018-03-24T00:20:51.982Z,0
2018-03-24T00:21:54.352Z,0
2018-03-24T00:22:56.720Z,0
2018-03-24T00:23:59.512Z,0
2018-03-24T00:25:02.202Z,0
2018-03-24T00:26:04.571Z,0
2018-03-24T00:27:06.961Z,0
2018-03-24T00:28:09.409Z,0
2018-03-24T00:29:11.773Z,0
2018-03-24T00:30:14.442Z,0
2018-03-24T00:31:16.808Z,0
2018-03-24T00:32:19.468Z,0
2018-03-24T00:33:21.844Z,0
2018-03-24T00:34:24.203Z,0
2018-03-24T00:35:26.578Z,0
2018-03-24T00:36:28.963Z,0
2018-03-24T00:37:31.407Z,0
2018-03-24T00:38:33.754Z,0
2018-03-24T00:39:36.409Z,0
2018-03-24T00:40:38.793Z,0
2018-03-24T00:41:41.162Z,0
2018-03-24T00:42:43.879Z,0
2018-03-24T00:43:46.859Z,0
2018-03-24T00:44:49.228Z,0
2018-03-24T00:45:51.616Z,0
2018-03-24T00:46:53.984Z,0
2018-03-24T00:47:56.640Z,0
2018-03-24T00:48:59.010Z,0
2018-03-24T00:50:01.673Z,0
2018-03-24T00:51:04.051Z,0
2018-03-24T00:52:06.779Z,0
2018-03-24T00:53:09.136Z,0
2018-03-24T00:54:11.515Z,0
2018-03-24T00:55:13.892Z,0
2018-03-24T00:56:16.267Z,0
2018-03-24T00:57:18.652Z,0
2018-03-24T00:58:21.044Z,0
2018-03-24T00:59:23.416Z,0
2018-03-24T01:00:25.795Z,0
2018-03-24T01:01:28.522Z,0
2018-03-24T01:02:31.445Z,0
2018-03-24T01:03:33.818Z,0
2018-03-24T01:04:36.199Z,0
2018-03-24T01:05:38.574Z,0
2018-03-24T01:06:41.233Z,0
2018-03-24T01:07:43.892Z,0
2018-03-24T01:08:46.262Z,0
2018-03-24T01:09:48.638Z,0
2018-03-24T01:10:51.103Z,0
2018-03-24T01:11:53.490Z,0
2018-03-24T01:12:55.853Z,0
2018-03-24T01:13:58.229Z,0
2018-03-24T01:15:00.604Z,0
2018-03-24T01:16:02.990Z,0
2018-03-24T01:17:05.351Z,0
2018-03-24T01:18:07.729Z,0
2018-03-24T01:19:10.083Z,0
2018-03-24T01:20:12.810Z,0
2018-03-24T01:21:15.188Z,0
2018-03-24T01:22:17.843Z,0
2018-03-24T01:23:20.216Z,0
2018-03-24T01:24:22.972Z,0
2018-03-24T01:25:25.642Z,0
2018-03-24T01:26:28.025Z,0
2018-03-24T01:27:30.383Z,0
2018-03-24T01:28:32.758Z,0
2018-03-24T01:29:35.189Z,0
2018-03-24T01:30:37.559Z,0
2018-03-24T01:31:39.940Z,0
2018-03-24T01:32:42.602Z,0
2018-03-24T01:33:44.993Z,0
2018-03-24T01:34:47.675Z,0
2018-03-24T01:35:50.605Z,0
2018-03-24T01:36:52.978Z,0
2018-03-24T01:37:55.358Z,0
2018-03-24T01:38:58.022Z,0
2018-03-24T01:40:00.394Z,0
2018-03-24T01:41:03.044Z,0
2018-03-24T01:42:05.424Z,0
2018-03-24T01:43:07.804Z,0
2018-03-24T01:44:10.181Z,0
2018-03-24T01:45:12.546Z,0
2018-03-24T01:46:14.924Z,0
2018-03-24T01:47:17.305Z,0
2018-03-24T01:48:19.673Z,0
2018-03-24T01:49:22.047Z,0
2018-03-24T01:50:24.425Z,0
2018-03-24T01:51:27.077Z,0
2018-03-24T01:52:29.464Z,0
2018-03-24T01:53:31.933Z,0
2018-03-24T01:54:34.298Z,0
2018-03-24T01:55:36.670Z,0
2018-03-24T01:56:39.050Z,0
2018-03-24T01:57:41.696Z,0
2018-03-24T01:58:44.103Z,0
2018-03-24T01:59:46.458Z,0
2018-03-24T02:00:48.834Z,0
2018-03-24T02:01:51.220Z,0
2018-03-24T02:02:53.596Z,0
2018-03-24T02:03:56.248Z,0
2018-03-24T02:04:58.898Z,0
2018-03-24T02:06:01.278Z,0
2018-03-24T02:07:03.640Z,0
2018-03-24T02:08:06.013Z,0
2018-03-24T02:09:08.405Z,0
2018-03-24T02:10:10.775Z,0
2018-03-24T02:11:13.251Z,0
2018-03-24T02:12:15.922Z,0
2018-03-24T02:13:18.291Z,0
2018-03-24T02:14:20.670Z,0
2018-03-24T02:15:23.055Z,0
2018-03-24T02:16:25.809Z,0
2018-03-24T02:17:28.463Z,0
2018-03-24T02:18:31.132Z,0
2018-03-24T02:19:33.501Z,0
2018-03-24T02:20:36.167Z,0
2018-03-24T02:21:38.812Z,0
2018-03-24T02:22:41.188Z,0
2018-03-24T02:23:43.563Z,0
2018-03-24T02:24:45.937Z,0
2018-03-24T02:25:48.577Z,0
2018-03-24T02:26:50.951Z,0
2018-03-24T02:27:53.324Z,0
2018-03-24T02:28:55.696Z,0
2018-03-24T02:29:58.437Z,0
2018-03-24T02:31:00.803Z,0
2018-03-24T02:32:03.176Z,0
2018-03-24T02:33:05.582Z,0
2018-03-24T02:34:07.950Z,0
2018-03-24T02:35:10.313Z,0
2018-03-24T02:36:12.694Z,0
2018-03-24T02:37:15.056Z,0
2018-03-24T02:38:17.433Z,0
2018-03-24T02:39:19.874Z,0
2018-03-24T02:40:22.524Z,0
2018-03-24T02:41:24.895Z,0
2018-03-24T02:42:27.272Z,0
2018-03-24T02:43:29.649Z,0
2018-03-24T02:44:32.016Z,0
2018-03-24T02:45:34.391Z,0
2018-03-24T02:46:36.767Z,0
2018-03-24T02:47:39.433Z,0
2018-03-24T02:48:41.804Z,0
2018-03-24T02:49:44.251Z,0
2018-03-24T02:50:46.632Z,0
2018-03-24T02:51:49.293Z,0
2018-03-24T02:52:51.673Z,0
2018-03-24T02:53:54.046Z,0
2018-03-24T02:54:56.724Z,0
2018-03-24T02:55:59.662Z,0
2018-03-24T02:57:02.339Z,0
2018-03-24T02:58:04.800Z,0
2018-03-24T02:59:07.167Z,0
2018-03-24T03:00:09.556Z,0
2018-03-24T03:01:11.917Z,0
2018-03-24T03:02:14.416Z,0
2018-03-24T03:03:16.789Z,0
2018-03-24T03:04:19.478Z,0
2018-03-24T03:05:22.440Z,0
2018-03-24T03:06:25.108Z,0
2018-03-24T03:07:27.483Z,0
2018-03-24T03:08:29.880Z,0
2018-03-24T03:09:32.243Z,0
2018-03-24T03:10:34.907Z,0
2018-03-24T03:11:37.278Z,0
2018-03-24T03:12:39.659Z,0
2018-03-24T03:13:42.840Z,0
2018-03-24T03:14:45.214Z,0
2018-03-24T03:15:47.581Z,0
2018-03-24T03:16:49.960Z,0
2018-03-24T03:17:52.339Z,0
2018-03-24T03:18:54.712Z,0
2018-03-24T03:19:57.091Z,0
2018-03-24T03:20:59.455Z,0
2018-03-24T03:22:01.835Z,0
2018-03-24T03:23:04.222Z,0
2018-03-24T03:24:06.586Z,0
2018-03-24T03:25:08.976Z,0
2018-03-24T03:26:11.354Z,0
2018-03-24T03:27:14.011Z,0
2018-03-24T03:28:16.385Z,0
2018-03-24T03:29:18.763Z,0
2018-03-24T03:30:21.120Z,0
2018-03-24T03:31:23.504Z,0
2018-03-24T03:32:26.168Z,0
2018-03-24T03:33:28.585Z,0
2018-03-24T03:34:30.963Z,0
2018-03-24T03:35:33.429Z,0
2018-03-24T03:36:35.796Z,0
2018-03-24T03:37:38.183Z,0
2018-03-24T03:38:40.772Z,0
2018-03-24T03:39:43.146Z,0
2018-03-24T03:40:45.520Z,0
2018-03-24T03:41:47.885Z,0
2018-03-24T03:42:50.253Z,0
2018-03-24T03:43:52.628Z,0
2018-03-24T03:44:55.001Z,0
2018-03-24T03:45:57.646Z,0
2018-03-24T03:47:00.034Z,0
2018-03-24T03:48:02.397Z,0
2018-03-24T03:49:04.773Z,0
2018-03-24T03:50:07.147Z,0
2018-03-24T03:51:09.512Z,0
2018-03-24T03:52:11.888Z,0
2018-03-24T03:53:14.332Z,0
2018-03-24T03:54:16.712Z,0
2018-03-24T03:55:19.080Z,0
2018-03-24T03:56:21.470Z,0
2018-03-24T03:57:23.839Z,0
2018-03-24T03:58:26.253Z,0
2018-03-24T03:59:28.638Z,0
2018-03-24T04:00:31.570Z,0
2018-03-24T04:01:33.947Z,0
2018-03-24T04:02:36.328Z,0
2018-03-24T04:03:38.976Z,0
2018-03-24T04:04:41.356Z,0
2018-03-24T04:05:43.726Z,0
2018-03-24T04:06:46.669Z,0
2018-03-24T04:07:49.039Z,0
2018-03-24T04:08:51.416Z,0
2018-03-24T04:09:53.788Z,0
2018-03-24T04:10:56.169Z,0
2018-03-24T04:11:58.536Z,0
2018-03-24T04:13:00.909Z,0
2018-03-24T04:14:03.849Z,0
2018-03-24T04:15:06.230Z,0
2018-03-24T04:16:08.613Z,0
2018-03-24T04:17:10.982Z,0
2018-03-24T04:18:13.358Z,0
2018-03-24T04:19:15.727Z,0
2018-03-24T04:20:18.107Z,0
2018-03-24T04:21:20.484Z,0
2018-03-24T04:22:22.884Z,0
2018-03-24T04:23:25.247Z,0
2018-03-24T04:24:27.637Z,0
2018-03-24T04:25:30.017Z,0
2018-03-24T04:26:32.411Z,0
2018-03-24T04:27:34.756Z,0
2018-03-24T04:28:37.124Z,0
2018-03-24T04:29:39.508Z,0
2018-03-24T04:30:41.871Z,0
2018-03-24T04:31:44.255Z,0
2018-03-24T04:32:46.634Z,0
2018-03-24T04:33:49.011Z,0
2018-03-24T04:34:51.382Z,0
2018-03-24T04:35:53.758Z,0
2018-03-24T04:36:56.129Z,0
2018-03-24T04:37:58.508Z,0
2018-03-24T04:39:00.874Z,0
2018-03-24T04:40:03.811Z,0
2018-03-24T04:41:06.195Z,0
2018-03-24T04:42:08.560Z,0
2018-03-24T04:43:10.935Z,0
2018-03-24T04:44:13.315Z,0
2018-03-24T04:45:16.242Z,0
2018-03-24T04:46:18.626Z,0
2018-03-24T04:47:20.986Z,0
2018-03-24T04:48:23.374Z,0
2018-03-24T04:49:25.739Z,0
2018-03-24T04:50:28.115Z,0
2018-03-24T04:51:30.793Z,0
2018-03-24T04:52:33.258Z,0
2018-03-24T04:53:35.909Z,0
2018-03-24T04:54:38.332Z,0
2018-03-24T04:55:40.701Z,0
2018-03-24T04:56:43.075Z,0
2018-03-24T04:57:45.525Z,0
2018-03-24T04:58:48.178Z,0
2018-03-24T04:59:50.857Z,0
2018-03-24T05:00:53.524Z,0
2018-03-24T05:01:56.541Z,0
2018-03-24T05:02:59.184Z,0
2018-03-24T05:04:01.562Z,0
2018-03-24T05:05:03.935Z,0
2018-03-24T05:06:06.310Z,0
2018-03-24T05:07:08.678Z,0
2018-03-24T05:08:11.055Z,1
2018-03-24T05:09:14.009Z,1
2018-03-24T05:10:16.393Z,1
2018-03-24T05:11:18.763Z,1
2018-03-24T05:12:21.138Z,1
2018-03-24T05:13:23.513Z,1
2018-03-24T05:14:25.877Z,1
2018-03-24T05:15:28.312Z,1
2018-03-24T05:16:30.683Z,2
2018-03-24T05:17:33.059Z,2
2018-03-24T05:18:35.430Z,2
2018-03-24T05:19:38.089Z,2
2018-03-24T05:20:40.461Z,2
2018-03-24T05:21:43.031Z,2
2018-03-24T05:22:45.404Z,3
2018-03-24T05:23:47.775Z,3
2018-03-24T05:24:50.149Z,3
2018-03-24T05:25:52.804Z,3
2018-03-24T05:26:55.478Z,4
2018-03-24T05:27:57.853Z,4
2018-03-24T05:29:00.230Z,4
2018-03-24T05:30:02.908Z,5
2018-03-24T05:31:05.848Z,5
2018-03-24T05:32:08.227Z,5
2018-03-24T05:33:10.595Z,5
2018-03-24T05:34:12.957Z,6
2018-03-24T05:35:15.334Z,6
2018-03-24T05:36:17.968Z,6
2018-03-24T05:37:20.344Z,6
2018-03-24T05:38:22.723Z,7
2018-03-24T05:39:25.094Z,7
2018-03-24T05:40:28.050Z,7
2018-03-24T05:41:30.703Z,7
2018-03-24T05:42:33.357Z,8
2018-03-24T05:43:35.734Z,8
2018-03-24T05:44:38.388Z,8
2018-03-24T05:45:40.745Z,8
2018-03-24T05:46:43.120Z,9
2018-03-24T05:47:45.484Z,9
2018-03-24T05:48:48.137Z,9
2018-03-24T05:49:50.790Z,9
2018-03-24T05:50:53.160Z,10
2018-03-24T05:51:55.528Z,10
2018-03-24T05:52:57.913Z,10
2018-03-24T05:54:00.274Z,11
2018-03-24T05:55:02.671Z,11
2018-03-24T05:56:05.312Z,11
2018-03-24T05:57:07.692Z,11
2018-03-24T05:58:10.057Z,12
2018-03-24T05:59:12.434Z,12
2018-03-24T06:00:14.805Z,13
2018-03-24T06:01:17.180Z,13
2018-03-24T06:02:19.550Z,13
2018-03-24T06:03:21.917Z,13
2018-03-24T06:04:24.581Z,14
2018-03-24T06:05:26.951Z,14
2018-03-24T06:06:29.605Z,14
2018-03-24T06:07:31.972Z,15
2018-03-24T06:08:34.351Z,16
2018-03-24T06:09:36.727Z,16
2018-03-24T06:10:39.135Z,17
2018-03-24T06:11:41.462Z,17
2018-03-24T06:12:43.835Z,18
2018-03-24T06:13:46.203Z,18
2018-03-24T06:14:48.574Z,19
2018-03-24T06:15:51.507Z,19
2018-03-24T06:16:53.876Z,19
2018-03-24T06:17:56.253Z,20
2018-03-24T06:18:59.223Z,21
2018-03-24T06:20:01.594Z,21
2018-03-24T06:21:03.977Z,22
2018-03-24T06:22:06.737Z,22
2018-03-24T06:23:09.096Z,23
2018-03-24T06:24:11.477Z,24
2018-03-24T06:25:14.136Z,25
2018-03-24T06:26:16.514Z,25
2018-03-24T06:27:19.166Z,26
2018-03-24T06:28:22.095Z,26
2018-03-24T06:29:24.472Z,27
2018-03-24T06:30:26.845Z,28
2018-03-24T06:31:29.218Z,29
2018-03-24T06:32:31.876Z,29
2018-03-24T06:33:34.265Z,30
2018-03-24T06:34:36.634Z,31
2018-03-24T06:35:38.997Z,31
2018-03-24T06:36:41.373Z,32
2018-03-24T06:37:44.028Z,32
2018-03-24T06:38:46.468Z,32
2018-03-24T06:39:48.789Z,33
2018-03-24T06:40:51.147Z,33
2018-03-24T06:41:53.530Z,33
2018-03-24T06:42:55.913Z,33
2018-03-24T06:43:58.276Z,33
2018-03-24T06:45:00.657Z,34
2018-03-24T06:46:03.322Z,34
2018-03-24T06:47:05.692Z,34
2018-03-24T06:48:08.084Z,35
2018-03-24T06:49:10.449Z,35
2018-03-24T06:50:13.106Z,35
2018-03-24T06:51:15.484Z,35
2018-03-24T06:52:17.856Z,35
2018-03-24T06:53:20.506Z,36
2018-03-24T06:54:23.451Z,36
2018-03-24T06:55:25.874Z,37
2018-03-24T06:56:28.191Z,37
2018-03-24T06:57:30.860Z,38
2018-03-24T06:58:33.240Z,39
2018-03-24T06:59:35.613Z,40
2018-03-24T07:00:38.041Z,41
2018-03-24T07:01:40.372Z,41
2018-03-24T07:02:42.746Z,42
2018-03-24T07:03:45.118Z,43
2018-03-24T07:04:47.766Z,43
2018-03-24T07:05:50.151Z,44
2018-03-24T07:06:52.511Z,45
2018-03-24T07:07:54.900Z,45
2018-03-24T07:08:57.265Z,46
2018-03-24T07:09:59.637Z,46
2018-03-24T07:11:02.325Z,46
2018-03-24T07:12:04.702Z,46
2018-03-24T07:13:07.075Z,46
2018-03-24T07:14:09.457Z,47
2018-03-24T07:15:11.827Z,46
2018-03-24T07:16:14.211Z,46
2018-03-24T07:17:16.598Z,46
2018-03-24T07:18:18.949Z,46
2018-03-24T07:19:21.338Z,47
2018-03-24T07:20:23.716Z,47
2018-03-24T07:21:26.093Z,48
2018-03-24T07:22:28.464Z,48
2018-03-24T07:23:30.843Z,49
2018-03-24T07:24:33.496Z,50
2018-03-24T07:25:36.464Z,50
2018-03-24T07:26:38.830Z,50
2018-03-24T07:27:41.214Z,51
2018-03-24T07:28:43.581Z,51
2018-03-24T07:29:45.958Z,51
2018-03-24T07:30:48.338Z,52
2018-03-24T07:31:50.708Z,52
2018-03-24T07:32:53.085Z,53
2018-03-24T07:33:55.461Z,53
2018-03-24T07:34:57.826Z,53
2018-03-24T07:36:00.512Z,54
2018-03-24T07:37:02.880Z,54
2018-03-24T07:38:05.265Z,54
2018-03-24T07:39:07.925Z,54
2018-03-24T07:40:10.299Z,55
2018-03-24T07:41:12.951Z,55
2018-03-24T07:42:15.325Z,57
2018-03-24T07:43:17.702Z,57
2018-03-24T07:44:20.071Z,58
2018-03-24T07:45:22.449Z,59
2018-03-24T07:46:24.818Z,60
2018-03-24T07:47:27.209Z,61
2018-03-24T07:48:29.580Z,61
2018-03-24T07:49:31.942Z,62
2018-03-24T07:50:34.901Z,63
2018-03-24T07:51:37.268Z,64
2018-03-24T07:52:39.926Z,65
2018-03-24T07:53:42.345Z,65
2018-03-24T07:54:44.670Z,67
2018-03-24T07:55:47.040Z,67
2018-03-24T07:56:49.428Z,67
2018-03-24T07:57:51.794Z,69
2018-03-24T07:58:54.165Z,68
2018-03-24T07:59:56.539Z,69
2018-03-24T08:00:58.928Z,70
2018-03-24T08:02:01.298Z,71
2018-03-24T08:03:03.963Z,72
2018-03-24T08:04:06.333Z,73
2018-03-24T08:05:08.989Z,74
2018-03-24T08:06:11.363Z,75
2018-03-24T08:07:14.028Z,76
2018-03-24T08:08:16.395Z,79
2018-03-24T08:09:19.050Z,79
2018-03-24T08:10:21.428Z,80
2018-03-24T08:11:23.799Z,81
2018-03-24T08:12:26.177Z,82
2018-03-24T08:13:28.552Z,83
2018-03-24T08:14:30.914Z,84
2018-03-24T08:15:33.300Z,85
2018-03-24T08:16:35.675Z,86
2018-03-24T08:17:38.043Z,88
2018-03-24T08:18:40.697Z,89
2018-03-24T08:19:43.363Z,91
2018-03-24T08:20:45.721Z,92
2018-03-24T08:21:48.401Z,93
2018-03-24T08:22:50.756Z,95
2018-03-24T08:23:53.140Z,94
2018-03-24T08:24:55.522Z,94
2018-03-24T08:25:57.897Z,94
2018-03-24T08:27:00.281Z,94
2018-03-24T08:28:02.949Z,96
2018-03-24T08:29:05.327Z,97
2018-03-24T08:30:07.747Z,99
2018-03-24T08:31:10.178Z,101
2018-03-24T08:32:12.623Z,102
2018-03-24T08:33:15.082Z,103
2018-03-24T08:34:17.504Z,102
2018-03-24T08:35:19.936Z,103
2018-03-24T08:36:22.383Z,103
2018-03-24T08:37:24.812Z,104
2018-03-24T08:38:27.261Z,106
2018-03-24T08:39:29.684Z,105
2018-03-24T08:40:32.137Z,107
2018-03-24T08:41:34.861Z,107
2018-03-24T08:42:37.582Z,109
2018-03-24T08:43:40.005Z,111
2018-03-24T08:44:42.481Z,112
2018-03-24T08:45:45.754Z,113
2018-03-24T08:46:48.198Z,115
2018-03-24T08:47:50.630Z,115
2018-03-24T08:48:53.047Z,116
2018-03-24T08:49:55.518Z,119
2018-03-24T08:50:57.953Z,121
2018-03-24T08:52:00.406Z,125
2018-03-24T08:53:02.843Z,129
2018-03-24T08:54:05.269Z,132
2018-03-24T08:55:08.038Z,134
2018-03-24T08:56:10.482Z,136
2018-03-24T08:57:12.938Z,137
2018-03-24T08:58:15.368Z,140
2018-03-24T08:59:17.794Z,142
2018-03-24T09:00:20.230Z,145
2018-03-24T09:01:22.664Z,148
2018-03-24T09:02:25.149Z,151
2018-03-24T09:03:28.240Z,155
2018-03-24T09:04:31.023Z,160
2018-03-24T09:05:33.436Z,159
2018-03-24T09:06:35.939Z,157
2018-03-24T09:07:38.647Z,157
2018-03-24T09:08:41.079Z,158
2018-03-24T09:09:43.507Z,159
2018-03-24T09:10:46.221Z,160
2018-03-24T09:11:48.651Z,163
2018-03-24T09:12:51.113Z,163
2018-03-24T09:13:53.588Z,168
2018-03-24T09:14:55.973Z,167
2018-03-24T09:15:58.689Z,167
2018-03-24T09:17:01.113Z,168
2018-03-24T09:18:03.555Z,172
2018-03-24T09:19:06.343Z,173
2018-03-24T09:20:08.772Z,176
2018-03-24T09:21:11.205Z,182
2018-03-24T09:22:14.002Z,185
2018-03-24T09:23:16.419Z,186
2018-03-24T09:24:18.845Z,184
2018-03-24T09:25:21.559Z,181
2018-03-24T09:26:24.475Z,181
2018-03-24T09:27:26.908Z,183
2018-03-24T09:28:29.635Z,185
2018-03-24T09:29:32.067Z,187
2018-03-24T09:30:34.576Z,186
2018-03-24T09:31:36.995Z,191
2018-03-24T09:32:39.432Z,192
2018-03-24T09:33:41.864Z,185
2018-03-24T09:34:44.446Z,183
2018-03-24T09:35:46.877Z,182
2018-03-24T09:36:49.304Z,185
2018-03-24T09:37:51.742Z,200
2018-03-24T09:38:54.476Z,191
2018-03-24T09:39:56.910Z,191
2018-03-24T09:41:00.238Z,189
2018-03-24T09:42:02.710Z,189
2018-03-24T09:43:05.400Z,190
2018-03-24T09:44:07.918Z,190
2018-03-24T09:45:10.362Z,193
2018-03-24T09:46:12.774Z,211
2018-03-24T09:47:15.812Z,217
2018-03-24T09:48:18.252Z,206
2018-03-24T09:49:20.688Z,208
2018-03-24T09:50:23.177Z,207
2018-03-24T09:51:25.608Z,212
2018-03-24T09:52:28.323Z,234
2018-03-24T09:53:30.770Z,254
2018-03-24T09:54:33.310Z,213
2018-03-24T09:55:35.733Z,212
2018-03-24T09:56:38.459Z,211
2018-03-24T09:57:40.900Z,214
2018-03-24T09:58:43.334Z,224
2018-03-24T09:59:45.767Z,239
2018-03-24T10:00:48.212Z,272
2018-03-24T10:01:50.936Z,273
2018-03-24T10:02:53.364Z,284
2018-03-24T10:03:55.796Z,276
2018-03-24T10:04:58.249Z,266
2018-03-24T10:06:00.670Z,252
2018-03-24T10:07:03.410Z,250
2018-03-24T10:08:05.850Z,245
2018-03-24T10:09:08.282Z,241
2018-03-24T10:10:10.714Z,243
2018-03-24T10:11:13.157Z,244
2018-03-24T10:12:15.575Z,247
2018-03-24T10:13:18.600Z,248
2018-03-24T10:14:21.049Z,247
2018-03-24T10:15:23.488Z,253
2018-03-24T10:16:25.957Z,258
2018-03-24T10:17:28.688Z,263
2018-03-24T10:18:31.116Z,270
2018-03-24T10:19:33.566Z,271
2018-03-24T10:20:36.426Z,274
2018-03-24T10:21:38.854Z,261
2018-03-24T10:22:41.340Z,255
2018-03-24T10:23:43.831Z,257
2018-03-24T10:24:46.569Z,253
2018-03-24T10:25:49.862Z,278
2018-03-24T10:26:52.582Z,258
2018-03-24T10:27:55.140Z,252
2018-03-24T10:28:57.607Z,250
2018-03-24T10:30:00.730Z,249
2018-03-24T10:31:03.467Z,255
2018-03-24T10:32:05.908Z,260
2018-03-24T10:33:08.357Z,269
2018-03-24T10:34:10.786Z,262
2018-03-24T10:35:13.222Z,268
2018-03-24T10:36:15.659Z,252
2018-03-24T10:37:18.090Z,254
2018-03-24T10:38:20.942Z,258
2018-03-24T10:39:23.369Z,256
2018-03-24T10:40:26.101Z,254
2018-03-24T10:41:28.595Z,253
2018-03-24T10:42:30.973Z,253
2018-03-24T10:43:33.427Z,259
2018-03-24T10:44:35.856Z,261
2018-03-24T10:45:38.327Z,265
2018-03-24T10:46:41.074Z,267
2018-03-24T10:47:43.504Z,267
2018-03-24T10:48:45.943Z,261
2018-03-24T10:49:48.381Z,267
2018-03-24T10:50:50.807Z,274
2018-03-24T10:51:53.544Z,294
2018-03-24T10:52:56.089Z,385
2018-03-24T10:53:58.513Z,336
2018-03-24T10:55:00.956Z,329
2018-03-24T10:56:03.741Z,432
2018-03-24T10:57:06.221Z,351
2018-03-24T10:58:08.773Z,305
2018-03-24T10:59:11.204Z,298
2018-03-24T11:00:13.777Z,291
2018-03-24T11:01:16.211Z,293
2018-03-24T11:02:18.643Z,294
2018-03-24T11:03:21.089Z,330
2018-03-24T11:04:23.532Z,312
2018-03-24T11:05:25.973Z,319
2018-03-24T11:06:28.414Z,406
2018-03-24T11:07:30.861Z,487
2018-03-24T11:08:33.293Z,610
2018-03-24T11:09:35.738Z,442
2018-03-24T11:10:38.682Z,510
2018-03-24T11:11:41.111Z,341
2018-03-24T11:12:43.544Z,305
2018-03-24T11:13:45.982Z,308
2018-03-24T11:14:48.440Z,305
2018-03-24T11:15:51.177Z,293
2018-03-24T11:16:53.605Z,285
2018-03-24T11:17:56.135Z,284
2018-03-24T11:18:58.575Z,286
2018-03-24T11:20:01.008Z,284
2018-03-24T11:21:03.455Z,298
2018-03-24T11:22:06.176Z,346
2018-03-24T11:23:08.613Z,296
2018-03-24T11:24:11.057Z,315
2018-03-24T11:25:13.489Z,316
2018-03-24T11:26:15.940Z,290
2018-03-24T11:27:18.378Z,260
2018-03-24T11:28:20.820Z,251
2018-03-24T11:29:23.832Z,247
2018-03-24T11:30:26.269Z,247
2018-03-24T11:31:28.701Z,255
2018-03-24T11:32:31.144Z,253
2018-03-24T11:33:33.581Z,258
2018-03-24T11:34:36.018Z,265
2018-03-24T11:35:39.068Z,271
2018-03-24T11:36:42.071Z,297
2018-03-24T11:37:44.519Z,365
2018-03-24T11:38:46.965Z,327
2018-03-24T11:39:49.394Z,306
2018-03-24T11:40:51.834Z,313
2018-03-24T11:41:54.494Z,319
2018-03-24T11:42:56.932Z,308
2018-03-24T11:43:59.376Z,277
2018-03-24T11:45:02.295Z,268
2018-03-24T11:46:05.058Z,262
2018-03-24T11:47:07.801Z,263
2018-03-24T11:48:10.548Z,265
2018-03-24T11:49:12.991Z,269
2018-03-24T11:50:15.441Z,273
2018-03-24T11:51:17.857Z,319
2018-03-24T11:52:20.298Z,326
2018-03-24T11:53:22.731Z,300
2018-03-24T11:54:25.177Z,270
2018-03-24T11:55:27.614Z,263
2018-03-24T11:56:30.054Z,265
2018-03-24T11:57:32.782Z,286
2018-03-24T11:58:35.211Z,277
2018-03-24T11:59:37.936Z,264
2018-03-24T12:00:40.684Z,257
2018-03-24T12:01:43.306Z,254
2018-03-24T12:02:45.749Z,258
2018-03-24T12:03:48.188Z,258
2018-03-24T12:04:50.630Z,263
2018-03-24T12:05:53.161Z,264
2018-03-24T12:06:55.892Z,263
2018-03-24T12:07:58.618Z,254
2018-03-24T12:09:01.085Z,248
2018-03-24T12:10:03.528Z,246
2018-03-24T12:11:06.249Z,244
2018-03-24T12:12:08.968Z,244
2018-03-24T12:13:11.715Z,244
2018-03-24T12:14:14.163Z,243
2018-03-24T12:15:16.610Z,242
2018-03-24T12:16:19.412Z,240
2018-03-24T12:17:21.860Z,240
2018-03-24T12:18:24.303Z,239
2018-03-24T12:19:26.749Z,244
2018-03-24T12:20:29.284Z,259
2018-03-24T12:21:31.731Z,281
2018-03-24T12:22:34.163Z,318
2018-03-24T12:23:36.981Z,277
2018-03-24T12:24:39.703Z,255
2018-03-24T12:25:42.136Z,247
2018-03-24T12:26:44.660Z,244
2018-03-24T12:27:47.113Z,251
2018-03-24T12:28:49.550Z,253
2018-03-24T12:29:52.207Z,240
2018-03-24T12:30:54.643Z,245
2018-03-24T12:31:57.088Z,265
2018-03-24T12:32:59.634Z,290
2018-03-24T12:34:02.403Z,342
2018-03-24T12:35:04.835Z,310
2018-03-24T12:36:07.280Z,305
2018-03-24T12:37:10.020Z,307
2018-03-24T12:38:12.759Z,342
2018-03-24T12:39:15.773Z,331
2018-03-24T12:40:18.211Z,292
2018-03-24T12:41:21.010Z,314
2018-03-24T12:42:23.463Z,322
2018-03-24T12:43:25.907Z,437
2018-03-24T12:44:28.345Z,395
2018-03-24T12:45:31.085Z,445
2018-03-24T12:46:33.528Z,403
2018-03-24T12:47:35.963Z,368
2018-03-24T12:48:38.736Z,340
2018-03-24T12:49:41.592Z,343
2018-03-24T12:50:44.034Z,310
2018-03-24T12:51:46.485Z,297
2018-03-24T12:52:48.932Z,288
2018-03-24T12:53:51.394Z,279
2018-03-24T12:54:53.830Z,276
2018-03-24T12:55:56.412Z,270
2018-03-24T12:56:58.851Z,271
2018-03-24T12:58:01.290Z,271
2018-03-24T12:59:03.821Z,274
2018-03-24T13:00:06.283Z,278
2018-03-24T13:01:08.716Z,288
2018-03-24T13:02:11.604Z,307
2018-03-24T13:03:14.048Z,292
2018-03-24T13:04:16.788Z,303
2018-03-24T13:05:19.271Z,308
2018-03-24T13:06:21.709Z,334
2018-03-24T13:07:25.062Z,356
2018-03-24T13:08:27.526Z,336
2018-03-24T13:09:29.962Z,332
2018-03-24T13:10:32.402Z,336
2018-03-24T13:11:35.179Z,339
2018-03-24T13:12:37.623Z,347
2018-03-24T13:13:40.070Z,320
2018-03-24T13:14:42.602Z,306
2018-03-24T13:15:45.050Z,302
2018-03-24T13:16:47.490Z,311
2018-03-24T13:17:49.941Z,301
2018-03-24T13:18:52.683Z,343
2018-03-24T13:19:55.134Z,372
2018-03-24T13:20:57.572Z,423
2018-03-24T13:22:00.019Z,431
2018-03-24T13:23:02.478Z,402
2018-03-24T13:24:04.917Z,412
2018-03-24T13:25:07.359Z,438
2018-03-24T13:26:09.807Z,381
2018-03-24T13:27:12.243Z,322
2018-03-24T13:28:15.292Z,365
2018-03-24T13:29:17.817Z,320
2018-03-24T13:30:20.266Z,311
2018-03-24T13:31:22.714Z,296
2018-03-24T13:32:25.184Z,373
2018-03-24T13:33:28.183Z,378
2018-03-24T13:34:30.637Z,320
2018-03-24T13:35:33.276Z,327
2018-03-24T13:36:35.724Z,313
2018-03-24T13:37:38.164Z,293
2018-03-24T13:38:40.683Z,264
2018-03-24T13:39:43.126Z,275
2018-03-24T13:40:45.581Z,265
2018-03-24T13:41:48.054Z,307
2018-03-24T13:42:50.531Z,266
2018-03-24T13:43:52.969Z,278
2018-03-24T13:44:55.770Z,258
2018-03-24T13:45:58.509Z,226
2018-03-24T13:47:00.972Z,227
2018-03-24T13:48:03.446Z,213
2018-03-24T13:49:05.904Z,209
2018-03-24T13:50:08.343Z,225
2018-03-24T13:51:10.813Z,248
2018-03-24T13:52:13.293Z,284
2018-03-24T13:53:16.029Z,290
2018-03-24T13:54:18.576Z,290
2018-03-24T13:55:21.316Z,304
2018-03-24T13:56:24.107Z,280
2018-03-24T13:57:26.867Z,313
2018-03-24T13:58:29.312Z,300
2018-03-24T13:59:32.063Z,294
2018-03-24T14:00:34.577Z,254
2018-03-24T14:01:37.322Z,271
2018-03-24T14:02:39.769Z,255
2018-03-24T14:03:42.237Z,265
2018-03-24T14:04:45.050Z,286
2018-03-24T14:05:47.507Z,269
2018-03-24T14:06:49.949Z,262
2018-03-24T14:07:52.387Z,256
2018-03-24T14:08:54.841Z,252
2018-03-24T14:09:57.292Z,259
2018-03-24T14:10:59.733Z,162
2018-03-24T14:12:02.179Z,136
2018-03-24T14:13:04.607Z,130
2018-03-24T14:14:07.058Z,125
2018-03-24T14:15:09.515Z,94
2018-03-24T14:16:11.957Z,86
2018-03-24T14:17:14.690Z,83
2018-03-24T14:18:17.133Z,86
2018-03-24T14:19:19.580Z,93
2018-03-24T14:20:22.029Z,141
2018-03-24T14:21:24.480Z,97
2018-03-24T14:22:26.915Z,85
2018-03-24T14:23:29.359Z,88
2018-03-24T14:24:31.811Z,91
2018-03-24T14:25:34.257Z,84
2018-03-24T14:26:36.700Z,80
2018-03-24T14:27:39.735Z,78
2018-03-24T14:28:42.181Z,76
2018-03-24T14:29:44.911Z,73
2018-03-24T14:30:47.362Z,70
2018-03-24T14:31:49.802Z,65
2018-03-24T14:32:52.239Z,62
2018-03-24T14:33:54.684Z,57
2018-03-24T14:34:57.132Z,52
2018-03-24T14:35:59.620Z,48
2018-03-24T14:37:02.355Z,45
2018-03-24T14:38:05.092Z,41
2018-03-24T14:39:07.521Z,38
2018-03-24T14:40:09.968Z,36
2018-03-24T14:41:12.416Z,36
2018-03-24T14:42:14.850Z,35
2018-03-24T14:43:17.319Z,35
2018-03-24T14:44:19.744Z,34
2018-03-24T14:45:22.178Z,34
2018-03-24T14:46:24.622Z,34
2018-03-24T14:47:27.056Z,34
2018-03-24T14:48:29.498Z,34
2018-03-24T14:49:31.938Z,34
2018-03-24T14:50:34.376Z,34